Map

Track Data

SID SEASON NUMBER BASIN SUBBASIN NAME ISO_TIME NATURE LAT LON WMO_WIND WMO_PRES WMO_AGENCY TRACK_TYPE DIST2LAND LANDFALL IFLAG USA_AGENCY USA_ATCF_ID USA_LAT USA_LON USA_RECORD USA_STATUS USA_WIND USA_PRES USA_SSHS USA_R34_NE USA_R34_SE USA_R34_SW USA_R34_NW USA_R50_NE USA_R50_SE USA_R50_SW USA_R50_NW USA_R64_NE USA_R64_SE USA_R64_SW USA_R64_NW USA_POCI USA_ROCI USA_RMW USA_EYE TOKYO_LAT TOKYO_LON TOKYO_GRADE TOKYO_WIND TOKYO_PRES TOKYO_R50_DIR TOKYO_R50_LONG TOKYO_R50_SHORT TOKYO_R30_DIR TOKYO_R30_LONG TOKYO_R30_SHORT TOKYO_LAND CMA_LAT CMA_LON CMA_CAT CMA_WIND CMA_PRES HKO_LAT HKO_LON HKO_CAT HKO_WIND HKO_PRES NEWDELHI_LAT NEWDELHI_LON NEWDELHI_GRADE NEWDELHI_WIND NEWDELHI_PRES NEWDELHI_CI NEWDELHI_DP NEWDELHI_POCI REUNION_LAT REUNION_LON REUNION_TYPE REUNION_WIND REUNION_PRES REUNION_TNUM REUNION_CI REUNION_RMW REUNION_R34_NE REUNION_R34_SE REUNION_R34_SW REUNION_R34_NW REUNION_R50_NE REUNION_R50_SE REUNION_R50_SW REUNION_R50_NW REUNION_R64_NE REUNION_R64_SE REUNION_R64_SW REUNION_R64_NW BOM_LAT BOM_LON BOM_TYPE BOM_WIND BOM_PRES BOM_TNUM BOM_CI BOM_RMW BOM_R34_NE BOM_R34_SE BOM_R34_SW BOM_R34_NW BOM_R50_NE BOM_R50_SE BOM_R50_SW BOM_R50_NW BOM_R64_NE BOM_R64_SE BOM_R64_SW BOM_R64_NW BOM_ROCI BOM_POCI BOM_EYE BOM_POS_METHOD BOM_PRES_METHOD NADI_LAT NADI_LON NADI_CAT NADI_WIND NADI_PRES WELLINGTON_LAT WELLINGTON_LON WELLINGTON_WIND WELLINGTON_PRES DS824_LAT DS824_LON DS824_STAGE DS824_WIND DS824_PRES TD9636_LAT TD9636_LON TD9636_STAGE TD9636_WIND TD9636_PRES TD9635_LAT TD9635_LON TD9635_WIND TD9635_PRES TD9635_ROCI NEUMANN_LAT NEUMANN_LON NEUMANN_CLASS NEUMANN_WIND NEUMANN_PRES MLC_LAT MLC_LON MLC_CLASS MLC_WIND MLC_PRES USA_GUST BOM_GUST BOM_GUST_PER REUNION_GUST REUNION_GUST_PER USA_SEAHGT USA_SEARAD_NE USA_SEARAD_SE USA_SEARAD_SW USA_SEARAD_NW STORM_SPEED STORM_DIR
1860081S14429 1860 14 SI MM NOT_NAMED 1860-03-20 18:00:00 NR -13.7000 68.7000 main 1371 1347 __________O___ -1 -13.7000 68.7000 7 6 237
1860081S14429 1860 14 SI MM NOT_NAMED 1860-03-20 21:00:00 NR -13.8549 68.4534 main 1341 1307 __________P___ -1 -13.8549 68.4534 7 6 237
1860081S14429 1860 14 SI MM NOT_NAMED 1860-03-21 00:00:00 NR -14.0078 68.2153 main 1307 1283 __________P___ -1 -14.0078 68.2153 7 5 236
1860081S14429 1860 14 SI MM NOT_NAMED 1860-03-21 03:00:00 NR -14.1568 67.9946 main 1277 1253 __________P___ -1 -14.1568 67.9946 7 5 234
1860081S14429 1860 14 SI MM NOT_NAMED 1860-03-21 06:00:00 NR -14.3000 67.8000 main 1253 1229 __________O___ -1 -14.3000 67.8000 7 4 231
1860081S14429 1860 14 SI MM NOT_NAMED 1860-03-21 09:00:00 NR -14.4361 67.6364 main 1229 1208 __________P___ -1 -14.4361 67.6364 7 4 228
1860081S14429 1860 14 SI MM NOT_NAMED 1860-03-21 12:00:00 NR -14.5648 67.4923 main 1208 1193 __________P___ -1 -14.5648 67.4923 7 4 228
1860081S14429 1860 14 SI MM NOT_NAMED 1860-03-21 15:00:00 NR -14.6861 67.3521 main 1193 1168 __________P___ -1 -14.6861 67.3521 7 4 230
1860081S14429 1860 14 SI MM NOT_NAMED 1860-03-21 18:00:00 NR -14.8000 67.2000 main 1168 1144 __________O___ -1 -14.8000 67.2000 7 4 238
1860081S14429 1860 14 SI MM NOT_NAMED 1860-03-21 21:00:00 NR -14.8909 67.0182 main 1144 1120 __________P___ -1 -14.8909 67.0182 7 4 244
1860081S14429 1860 14 SI MM NOT_NAMED 1860-03-22 00:00:00 NR -14.9775 66.8222 main 1120 1096 __________P___ -1 -14.9775 66.8222 7 4 245
1860081S14429 1860 14 SI MM NOT_NAMED 1860-03-22 03:00:00 NR -15.0753 66.6151 main 1096 1072 __________P___ -1 -15.0753 66.6151 7 5 241
1860081S14429 1860 14 SI MM NOT_NAMED 1860-03-22 06:00:00 NR -15.2000 66.4000 main 1072 1042 __________O___ -1 -15.2000 66.4000 7 5 234
1860081S14429 1860 14 SI MM NOT_NAMED 1860-03-22 09:00:00 NR -15.3753 66.1823 main 1042 1012 __________P___ -1 -15.3753 66.1823 7 6 228
1860081S14429 1860 14 SI MM NOT_NAMED 1860-03-22 12:00:00 NR -15.5775 65.9576 main 1012 973 __________P___ -1 -15.5775 65.9576 7 6 226
1860081S14429 1860 14 SI MM NOT_NAMED 1860-03-22 15:00:00 NR -15.7909 65.7291 main 973 943 __________P___ -1 -15.7909 65.7291 7 6 226
1860081S14429 1860 14 SI MM NOT_NAMED 1860-03-22 18:00:00 NR -16.0000 65.5000 main 943 913 __________O___ -1 -16.0000 65.5000 7 6 228
1860081S14429 1860 14 SI MM NOT_NAMED 1860-03-22 21:00:00 NR -16.1944 65.2628 main 913 874 __________P___ -1 -16.1944 65.2628 7 6 230
1860081S14429 1860 14 SI MM NOT_NAMED 1860-03-23 00:00:00 NR -16.3800 65.0275 main 874 850 __________P___ -1 -16.3800 65.0275 7 6 231
1860081S14429 1860 14 SI MM NOT_NAMED 1860-03-23 03:00:00 NR -16.5506 64.8035 main 845 821 __________P___ -1 -16.5506 64.8035 7 5 232
1860081S14429 1860 14 SI MM NOT_NAMED 1860-03-23 06:00:00 NR -16.7000 64.6000 main 821 797 __________O___ -1 -16.7000 64.6000 7 4 233
1860081S14429 1860 14 SI MM NOT_NAMED 1860-03-23 09:00:00 NR -16.8174 64.4282 main 797 782 __________P___ -1 -16.8174 64.4282 7 4 235
1860081S14429 1860 14 SI MM NOT_NAMED 1860-03-23 12:00:00 NR -16.9148 64.2772 main 782 758 __________P___ -1 -16.9148 64.2772 7 3 236
1860081S14429 1860 14 SI MM NOT_NAMED 1860-03-23 15:00:00 NR -17.0049 64.1376 main 758 743 __________P___ -1 -17.0049 64.1376 7 3 235
1860081S14429 1860 14 SI MM NOT_NAMED 1860-03-23 18:00:00 NR -17.1000 64.0000 main 743 729 __________O___ -1 -17.1000 64.0000 7 3 233
1860081S14429 1860 14 SI MM NOT_NAMED 1860-03-23 21:00:00 NR -17.2096 63.8580 main 729 705 __________P___ -1 -17.2096 63.8580 7 4 230
1860081S14429 1860 14 SI MM NOT_NAMED 1860-03-24 00:00:00 NR -17.3274 63.7148 main 705 690 __________P___ -1 -17.3274 63.7148 7 4 229
1860081S14429 1860 14 SI MM NOT_NAMED 1860-03-24 03:00:00 NR -17.4565 63.5642 main 685 661 __________P___ -1 -17.4565 63.5642 7 4 228
1860081S14429 1860 14 SI MM NOT_NAMED 1860-03-24 06:00:00 NR -17.6000 63.4000 main 661 637 __________O___ -1 -17.6000 63.4000 7 4 227
1860081S14429 1860 14 SI MM NOT_NAMED 1860-03-24 09:00:00 NR -17.7565 63.2264 main 632 608 __________P___ -1 -17.7565 63.2264 7 5 226
1860081S14429 1860 14 SI MM NOT_NAMED 1860-03-24 12:00:00 NR -17.9273 63.0373 main 608 579 __________P___ -1 -17.9273 63.0373 7 5 227
1860081S14429 1860 14 SI MM NOT_NAMED 1860-03-24 15:00:00 NR -18.1096 62.8295 main 579 551 __________P___ -1 -18.1096 62.8295 7 6 228
1860081S14429 1860 14 SI MM NOT_NAMED 1860-03-24 18:00:00 NR -18.3000 62.6000 main 551 513 __________O___ -1 -18.3000 62.6000 7 6 230
1860081S14429 1860 14 SI MM NOT_NAMED 1860-03-24 21:00:00 NR -18.5011 62.3305 main 513 484 __________P___ -1 -18.5011 62.3305 7 7 232
1860081S14429 1860 14 SI MM NOT_NAMED 1860-03-25 00:00:00 NR -18.7077 62.0428 main 475 447 __________P___ -1 -18.7077 62.0428 7 7 233
1860081S14429 1860 14 SI MM NOT_NAMED 1860-03-25 03:00:00 NR -18.9105 61.7586 main 447 409 __________P___ -1 -18.9105 61.7586 7 6 233
1860081S14429 1860 14 SI MM NOT_NAMED 1860-03-25 06:00:00 NR -19.1000 61.5000 main 409 382 __________O___ -1 -19.1000 61.5000 7 6 231
1860081S14429 1860 14 SI MM NOT_NAMED 1860-03-25 09:00:00 NR -19.2642 61.2919 main 382 359 __________P___ -1 -19.2642 61.2919 7 5 229
1860081S14429 1860 14 SI MM NOT_NAMED 1860-03-25 12:00:00 NR -19.4148 61.1121 main 359 343 __________P___ -1 -19.4148 61.1121 7 4 228
1860081S14429 1860 14 SI MM NOT_NAMED 1860-03-25 15:00:00 NR -19.5580 60.9513 main 343 320 __________P___ -1 -19.5580 60.9513 7 4 226
1860081S14429 1860 14 SI MM NOT_NAMED 1860-03-25 18:00:00 NR -19.7000 60.8000 main 320 308 __________O___ -1 -19.7000 60.8000 7 4 225
1860081S14429 1860 14 SI MM NOT_NAMED 1860-03-25 21:00:00 NR -19.8459 60.6427 main 297 283 __________P___ -1 -19.8459 60.6427 7 4 225
1860081S14429 1860 14 SI MM NOT_NAMED 1860-03-26 00:00:00 NR -19.9924 60.4923 main 283 272 __________P___ -1 -19.9924 60.4923 7 4 223
1860081S14429 1860 14 SI MM NOT_NAMED 1860-03-26 03:00:00 NR -20.1427 60.3458 main 261 250 __________P___ -1 -20.1427 60.3458 7 4 222
1860081S14429 1860 14 SI MM NOT_NAMED 1860-03-26 06:00:00 NR -20.3000 60.2000 main 250 240 __________O___ -1 -20.3000 60.2000 7 4 221
1860081S14429 1860 14 SI MM NOT_NAMED 1860-03-26 09:00:00 NR -20.4678 60.0459 main 230 221 __________P___ -1 -20.4678 60.0459 7 4 220
1860081S14429 1860 14 SI MM NOT_NAMED 1860-03-26 12:00:00 NR -20.6425 59.8925 main 221 213 __________P___ -1 -20.6425 59.8925 7 5 219
1860081S14429 1860 14 SI MM NOT_NAMED 1860-03-26 15:00:00 NR -20.8209 59.7428 main 205 198 __________P___ -1 -20.8209 59.7428 7 5 218
1860081S14429 1860 14 SI MM NOT_NAMED 1860-03-26 18:00:00 NR -21.0000 59.6000 main 202 198 __________O___ -1 -21.0000 59.6000 7 4 218
1860081S14429 1860 14 SI MM NOT_NAMED 1860-03-26 21:00:00 NR -21.1383 59.4755 main 198 193 __________P___ -1 -21.1383 59.4755 7 4 219
1860081S14429 1860 14 SI MM NOT_NAMED 1860-03-27 00:00:00 NR -21.2824 59.3568 main 197 185 __________P___ -1 -21.2824 59.3568 7 4 215
1860081S14429 1860 14 SI MM NOT_NAMED 1860-03-27 03:00:00 NR -21.4602 59.2347 main 191 190 __________P___ -1 -21.4602 59.2347 7 5 209
1860081S14429 1860 14 SI MM NOT_NAMED 1860-03-27 06:00:00 NR -21.7000 59.1000 main 197 197 __________O___ -1 -21.7000 59.1000 7 6 206
1860081S14429 1860 14 SI MM NOT_NAMED 1860-03-27 09:00:00 NR -22.0273 58.9355 main 208 208 __________P___ -1 -22.0273 58.9355 7 8 204
1860081S14429 1860 14 SI MM NOT_NAMED 1860-03-27 12:00:00 NR -22.4176 58.7577 main 241 236 __________P___ -1 -22.4176 58.7577 7 9 202
1860081S14429 1860 14 SI MM NOT_NAMED 1860-03-27 15:00:00 NR -22.8491 58.5760 main 273 273 __________P___ -1 -22.8491 58.5760 7 9 200
1860081S14429 1860 14 SI MM NOT_NAMED 1860-03-27 18:00:00 NR -23.3000 58.4000 main 321 321 __________O___ -1 -23.3000 58.4000 7 9 199
1860081S14429 1860 14 SI MM NOT_NAMED 1860-03-27 21:00:00 NR -23.7397 58.2346 main 361 361 __________P___ -1 -23.7397 58.2346 7 9 198
1860081S14429 1860 14 SI MM NOT_NAMED 1860-03-28 00:00:00 NR -24.1925 58.0774 main 400 400 __________P___ -1 -24.1925 58.0774 7 10 197
1860081S14429 1860 14 SI MM NOT_NAMED 1860-03-28 03:00:00 NR -24.6491 57.9315 main 426 426 __________P___ -1 -24.6491 57.9315 7 9 196
1860081S14429 1860 14 SI MM NOT_NAMED 1860-03-28 06:00:00 NR -25.1000 57.8000 main 470 470 __________O___ -1 -25.1000 57.8000 7 9 194
1860081S14429 1860 14 SI MM NOT_NAMED 1860-03-28 09:00:00 NR -25.5280 57.6851 main 505 505 __________P___ -1 -25.5280 57.6851 7 9 193
1860081S14429 1860 14 SI MM NOT_NAMED 1860-03-28 12:00:00 NR -25.9499 57.5843 main 542 542 __________P___ -1 -25.9499 57.5843 7 9 192
1860081S14429 1860 14 SI MM NOT_NAMED 1860-03-28 15:00:00 NR -26.3718 57.4914 main 591 591 __________P___ -1 -26.3718 57.4914 7 9 191
1860081S14429 1860 14 SI MM NOT_NAMED 1860-03-28 18:00:00 NR -26.8000 57.4000 main 630 630 __________O___ -1 -26.8000 57.4000 7 9 191
1860081S14429 1860 14 SI MM NOT_NAMED 1860-03-28 21:00:00 NR -27.2391 57.3049 main 670 670 __________P___ -1 -27.2391 57.3049 7 9 191
1860081S14429 1860 14 SI MM NOT_NAMED 1860-03-29 00:00:00 NR -27.6876 57.2059 main 722 722 __________P___ -1 -27.6876 57.2059 7 9 191
1860081S14429 1860 14 SI MM NOT_NAMED 1860-03-29 03:00:00 NR -28.1423 57.1039 main 763 763 __________P___ -1 -28.1423 57.1039 7 9 191
1860081S14429 1860 14 SI MM NOT_NAMED 1860-03-29 06:00:00 NR -28.6000 57.0000 main 816 __________O___ -1 -28.6000 57.0000 7 9 191

About IBTrACS Database

This database is a web-friendly format of International Best Track Archive for Climate Stewardship (IBTrACS), a global best track data archive curated by NOAA dating back to 1842.

Updated: 2021-11-26